sensor_id;sensor_type;location;lat;lon;timestamp;P1;durP1;ratioP1;P2;durP2;ratioP2
78484;SDS011;67773;50.806;8.776;2023-12-07T00:00:14;30.13;;;14.77;;
78484;SDS011;67773;50.806;8.776;2023-12-07T00:02:40;26.52;;;14.38;;
78484;SDS011;67773;50.806;8.776;2023-12-07T00:05:06;27.67;;;13.73;;
78484;SDS011;67773;50.806;8.776;2023-12-07T00:07:31;27.98;;;14.48;;
78484;SDS011;67773;50.806;8.776;2023-12-07T00:09:57;28.63;;;13.70;;
78484;SDS011;67773;50.806;8.776;2023-12-07T00:12:22;25.87;;;12.60;;
78484;SDS011;67773;50.806;8.776;2023-12-07T00:14:47;26.07;;;14.20;;
78484;SDS011;67773;50.806;8.776;2023-12-07T00:17:12;28.00;;;12.33;;
78484;SDS011;67773;50.806;8.776;2023-12-07T00:19:39;27.77;;;13.15;;
78484;SDS011;67773;50.806;8.776;2023-12-07T00:22:04;25.08;;;13.32;;
78484;SDS011;67773;50.806;8.776;2023-12-07T00:24:30;23.00;;;12.07;;
78484;SDS011;67773;50.806;8.776;2023-12-07T00:26:55;26.95;;;12.38;;
78484;SDS011;67773;50.806;8.776;2023-12-07T00:29:21;24.83;;;12.98;;
78484;SDS011;67773;50.806;8.776;2023-12-07T00:31:46;25.42;;;12.75;;
78484;SDS011;67773;50.806;8.776;2023-12-07T00:34:12;26.97;;;12.83;;
78484;SDS011;67773;50.806;8.776;2023-12-07T00:36:37;23.95;;;11.82;;
78484;SDS011;67773;50.806;8.776;2023-12-07T00:39:04;25.02;;;11.77;;
78484;SDS011;67773;50.806;8.776;2023-12-07T00:41:29;23.75;;;12.75;;
78484;SDS011;67773;50.806;8.776;2023-12-07T00:43:54;25.27;;;13.10;;
78484;SDS011;67773;50.806;8.776;2023-12-07T00:46:20;25.10;;;12.90;;
78484;SDS011;67773;50.806;8.776;2023-12-07T00:48:45;22.77;;;11.83;;
78484;SDS011;67773;50.806;8.776;2023-12-07T00:51:10;28.43;;;12.90;;
78484;SDS011;67773;50.806;8.776;2023-12-07T00:53:36;25.30;;;12.23;;
78484;SDS011;67773;50.806;8.776;2023-12-07T00:56:02;19.88;;;10.93;;
78484;SDS011;67773;50.806;8.776;2023-12-07T00:58:29;26.00;;;11.57;;
78484;SDS011;67773;50.806;8.776;2023-12-07T01:00:54;23.43;;;12.23;;
78484;SDS011;67773;50.806;8.776;2023-12-07T01:03:19;22.33;;;11.57;;
78484;SDS011;67773;50.806;8.776;2023-12-07T01:05:44;25.53;;;12.27;;
78484;SDS011;67773;50.806;8.776;2023-12-07T01:08:10;26.20;;;12.13;;
78484;SDS011;67773;50.806;8.776;2023-12-07T01:10:36;21.88;;;11.63;;
78484;SDS011;67773;50.806;8.776;2023-12-07T01:13:01;23.65;;;11.98;;
78484;SDS011;67773;50.806;8.776;2023-12-07T01:15:27;20.57;;;10.83;;
78484;SDS011;67773;50.806;8.776;2023-12-07T01:17:52;26.13;;;12.00;;
78484;SDS011;67773;50.806;8.776;2023-12-07T01:20:17;24.07;;;11.60;;
78484;SDS011;67773;50.806;8.776;2023-12-07T01:22:43;25.07;;;12.27;;
78484;SDS011;67773;50.806;8.776;2023-12-07T01:25:08;21.53;;;11.27;;
78484;SDS011;67773;50.806;8.776;2023-12-07T01:27:34;21.40;;;11.25;;
78484;SDS011;67773;50.806;8.776;2023-12-07T01:29:59;27.15;;;12.63;;
78484;SDS011;67773;50.806;8.776;2023-12-07T01:32:25;23.75;;;12.23;;
78484;SDS011;67773;50.806;8.776;2023-12-07T01:34:50;23.05;;;11.38;;
78484;SDS011;67773;50.806;8.776;2023-12-07T01:37:16;24.57;;;11.93;;
78484;SDS011;67773;50.806;8.776;2023-12-07T01:39:41;24.77;;;12.60;;
78484;SDS011;67773;50.806;8.776;2023-12-07T01:42:08;23.77;;;12.38;;
78484;SDS011;67773;50.806;8.776;2023-12-07T01:44:34;24.50;;;11.63;;
78484;SDS011;67773;50.806;8.776;2023-12-07T01:46:59;20.42;;;11.30;;
78484;SDS011;67773;50.806;8.776;2023-12-07T01:49:26;23.08;;;11.27;;
78484;SDS011;67773;50.806;8.776;2023-12-07T01:51:51;19.90;;;10.80;;
78484;SDS011;67773;50.806;8.776;2023-12-07T01:54:16;20.88;;;10.73;;
78484;SDS011;67773;50.806;8.776;2023-12-07T01:56:42;19.85;;;10.63;;
78484;SDS011;67773;50.806;8.776;2023-12-07T01:59:08;20.88;;;10.27;;
78484;SDS011;67773;50.806;8.776;2023-12-07T02:01:34;26.50;;;11.70;;
78484;SDS011;67773;50.806;8.776;2023-12-07T02:03:59;20.55;;;10.65;;
78484;SDS011;67773;50.806;8.776;2023-12-07T02:06:25;23.60;;;10.93;;
78484;SDS011;67773;50.806;8.776;2023-12-07T02:08:51;20.90;;;10.52;;
78484;SDS011;67773;50.806;8.776;2023-12-07T02:11:16;21.10;;;10.97;;
78484;SDS011;67773;50.806;8.776;2023-12-07T02:13:43;19.08;;;10.13;;
78484;SDS011;67773;50.806;8.776;2023-12-07T02:16:17;20.80;;;9.88;;
78484;SDS011;67773;50.806;8.776;2023-12-07T02:21:57;21.48;;;9.75;;
78484;SDS011;67773;50.806;8.776;2023-12-07T02:24:27;20.00;;;9.60;;
78484;SDS011;67773;50.806;8.776;2023-12-07T02:26:55;21.67;;;9.90;;
78484;SDS011;67773;50.806;8.776;2023-12-07T02:29:21;20.27;;;10.13;;
78484;SDS011;67773;50.806;8.776;2023-12-07T02:31:46;20.60;;;10.27;;
78484;SDS011;67773;50.806;8.776;2023-12-07T02:34:11;20.83;;;10.07;;
78484;SDS011;67773;50.806;8.776;2023-12-07T02:36:38;19.42;;;9.95;;
78484;SDS011;67773;50.806;8.776;2023-12-07T02:39:04;18.67;;;9.52;;
78484;SDS011;67773;50.806;8.776;2023-12-07T02:41:31;21.02;;;10.50;;
78484;SDS011;67773;50.806;8.776;2023-12-07T02:43:58;22.08;;;10.68;;
78484;SDS011;67773;50.806;8.776;2023-12-07T02:46:25;22.75;;;10.70;;
78484;SDS011;67773;50.806;8.776;2023-12-07T02:48:51;20.92;;;10.38;;
78484;SDS011;67773;50.806;8.776;2023-12-07T02:51:16;18.40;;;10.07;;
78484;SDS011;67773;50.806;8.776;2023-12-07T02:53:41;19.27;;;10.60;;
78484;SDS011;67773;50.806;8.776;2023-12-07T02:56:07;25.47;;;11.67;;
78484;SDS011;67773;50.806;8.776;2023-12-07T02:58:32;22.67;;;10.85;;
78484;SDS011;67773;50.806;8.776;2023-12-07T03:00:57;22.33;;;10.83;;
78484;SDS011;67773;50.806;8.776;2023-12-07T03:03:24;19.33;;;10.38;;
78484;SDS011;67773;50.806;8.776;2023-12-07T03:05:49;23.88;;;11.98;;
78484;SDS011;67773;50.806;8.776;2023-12-07T03:08:14;19.70;;;10.40;;
78484;SDS011;67773;50.806;8.776;2023-12-07T03:10:40;20.23;;;11.07;;
78484;SDS011;67773;50.806;8.776;2023-12-07T03:13:05;26.27;;;10.30;;
78484;SDS011;67773;50.806;8.776;2023-12-07T03:15:30;20.70;;;10.77;;
78484;SDS011;67773;50.806;8.776;2023-12-07T03:17:55;21.40;;;11.03;;
78484;SDS011;67773;50.806;8.776;2023-12-07T03:20:21;19.67;;;9.87;;
78484;SDS011;67773;50.806;8.776;2023-12-07T03:22:46;21.03;;;9.97;;
78484;SDS011;67773;50.806;8.776;2023-12-07T03:25:11;20.50;;;11.53;;
78484;SDS011;67773;50.806;8.776;2023-12-07T03:27:37;20.30;;;10.63;;
78484;SDS011;67773;50.806;8.776;2023-12-07T03:30:02;19.57;;;10.37;;
78484;SDS011;67773;50.806;8.776;2023-12-07T03:32:28;17.35;;;9.43;;
78484;SDS011;67773;50.806;8.776;2023-12-07T03:34:53;21.87;;;10.63;;
78484;SDS011;67773;50.806;8.776;2023-12-07T03:37:18;21.63;;;10.57;;
78484;SDS011;67773;50.806;8.776;2023-12-07T03:39:43;22.47;;;10.57;;
78484;SDS011;67773;50.806;8.776;2023-12-07T03:42:09;22.67;;;11.03;;
78484;SDS011;67773;50.806;8.776;2023-12-07T03:44:34;21.13;;;10.57;;
78484;SDS011;67773;50.806;8.776;2023-12-07T03:47:00;21.57;;;10.70;;
78484;SDS011;67773;50.806;8.776;2023-12-07T03:49:26;24.13;;;11.30;;
78484;SDS011;67773;50.806;8.776;2023-12-07T03:51:51;20.80;;;10.17;;
78484;SDS011;67773;50.806;8.776;2023-12-07T03:54:16;21.08;;;10.40;;
78484;SDS011;67773;50.806;8.776;2023-12-07T03:56:42;17.90;;;9.67;;
78484;SDS011;67773;50.806;8.776;2023-12-07T03:59:07;25.83;;;11.73;;
78484;SDS011;67773;50.806;8.776;2023-12-07T04:01:32;22.20;;;10.87;;
78484;SDS011;67773;50.806;8.776;2023-12-07T04:03:58;22.33;;;11.07;;
78484;SDS011;67773;50.806;8.776;2023-12-07T04:06:24;21.23;;;11.68;;
78484;SDS011;67773;50.806;8.776;2023-12-07T04:08:49;21.05;;;11.20;;
78484;SDS011;67773;50.806;8.776;2023-12-07T04:11:15;22.00;;;10.93;;
78484;SDS011;67773;50.806;8.776;2023-12-07T04:13:41;24.65;;;10.85;;
78484;SDS011;67773;50.806;8.776;2023-12-07T04:16:07;24.17;;;10.93;;
78484;SDS011;67773;50.806;8.776;2023-12-07T04:18:33;23.05;;;11.27;;
78484;SDS011;67773;50.806;8.776;2023-12-07T04:20:59;22.33;;;10.40;;
78484;SDS011;67773;50.806;8.776;2023-12-07T04:23:24;20.88;;;10.77;;
78484;SDS011;67773;50.806;8.776;2023-12-07T04:25:50;23.17;;;11.40;;
78484;SDS011;67773;50.806;8.776;2023-12-07T04:28:15;22.85;;;10.52;;
78484;SDS011;67773;50.806;8.776;2023-12-07T04:30:40;21.00;;;10.47;;
78484;SDS011;67773;50.806;8.776;2023-12-07T04:33:06;21.93;;;11.33;;
78484;SDS011;67773;50.806;8.776;2023-12-07T04:35:31;22.92;;;10.45;;
78484;SDS011;67773;50.806;8.776;2023-12-07T04:37:57;24.35;;;11.23;;
78484;SDS011;67773;50.806;8.776;2023-12-07T04:40:23;22.63;;;10.43;;
78484;SDS011;67773;50.806;8.776;2023-12-07T04:42:49;26.02;;;11.15;;
78484;SDS011;67773;50.806;8.776;2023-12-07T04:45:15;24.08;;;11.73;;
78484;SDS011;67773;50.806;8.776;2023-12-07T04:47:41;23.00;;;11.02;;
78484;SDS011;67773;50.806;8.776;2023-12-07T04:50:06;23.23;;;10.57;;
78484;SDS011;67773;50.806;8.776;2023-12-07T04:52:32;25.38;;;12.18;;
78484;SDS011;67773;50.806;8.776;2023-12-07T04:54:57;28.60;;;12.10;;
78484;SDS011;67773;50.806;8.776;2023-12-07T04:57:23;22.57;;;11.30;;
78484;SDS011;67773;50.806;8.776;2023-12-07T04:59:48;24.13;;;10.70;;
78484;SDS011;67773;50.806;8.776;2023-12-07T05:02:14;24.27;;;10.67;;
78484;SDS011;67773;50.806;8.776;2023-12-07T05:04:40;23.98;;;10.98;;
78484;SDS011;67773;50.806;8.776;2023-12-07T05:07:05;28.17;;;12.10;;
78484;SDS011;67773;50.806;8.776;2023-12-07T05:09:30;24.03;;;10.63;;
78484;SDS011;67773;50.806;8.776;2023-12-07T05:11:56;24.17;;;11.90;;
78484;SDS011;67773;50.806;8.776;2023-12-07T05:14:21;26.63;;;11.85;;
78484;SDS011;67773;50.806;8.776;2023-12-07T05:16:48;27.55;;;12.52;;
78484;SDS011;67773;50.806;8.776;2023-12-07T05:19:17;32.90;;;13.40;;
78484;SDS011;67773;50.806;8.776;2023-12-07T05:21:43;28.60;;;11.90;;
78484;SDS011;67773;50.806;8.776;2023-12-07T05:24:09;26.60;;;12.98;;
78484;SDS011;67773;50.806;8.776;2023-12-07T05:26:34;38.90;;;14.67;;
78484;SDS011;67773;50.806;8.776;2023-12-07T05:29:00;29.53;;;13.90;;
78484;SDS011;67773;50.806;8.776;2023-12-07T05:31:25;28.10;;;13.33;;
78484;SDS011;67773;50.806;8.776;2023-12-07T05:33:51;35.65;;;15.27;;
78484;SDS011;67773;50.806;8.776;2023-12-07T05:36:17;33.33;;;14.97;;
78484;SDS011;67773;50.806;8.776;2023-12-07T05:38:42;32.22;;;14.10;;
78484;SDS011;67773;50.806;8.776;2023-12-07T05:41:08;32.20;;;15.20;;
78484;SDS011;67773;50.806;8.776;2023-12-07T05:43:33;43.17;;;16.03;;
78484;SDS011;67773;50.806;8.776;2023-12-07T05:45:58;35.33;;;15.77;;
78484;SDS011;67773;50.806;8.776;2023-12-07T05:48:24;38.78;;;14.60;;
78484;SDS011;67773;50.806;8.776;2023-12-07T05:50:49;40.87;;;15.63;;
78484;SDS011;67773;50.806;8.776;2023-12-07T05:53:14;35.03;;;15.23;;
78484;SDS011;67773;50.806;8.776;2023-12-07T05:55:40;35.30;;;14.57;;
78484;SDS011;67773;50.806;8.776;2023-12-07T05:58:05;36.67;;;15.00;;
78484;SDS011;67773;50.806;8.776;2023-12-07T06:00:30;37.30;;;14.43;;
78484;SDS011;67773;50.806;8.776;2023-12-07T06:02:56;34.78;;;14.88;;
78484;SDS011;67773;50.806;8.776;2023-12-07T06:05:22;47.97;;;13.32;;
78484;SDS011;67773;50.806;8.776;2023-12-07T06:07:47;33.97;;;14.30;;
78484;SDS011;67773;50.806;8.776;2023-12-07T06:10:12;36.23;;;13.73;;
78484;SDS011;67773;50.806;8.776;2023-12-07T06:12:38;36.38;;;13.52;;
78484;SDS011;67773;50.806;8.776;2023-12-07T06:15:04;32.60;;;13.40;;
78484;SDS011;67773;50.806;8.776;2023-12-07T06:17:31;63.28;;;16.05;;
78484;SDS011;67773;50.806;8.776;2023-12-07T06:19:58;37.58;;;15.32;;
78484;SDS011;67773;50.806;8.776;2023-12-07T06:22:23;38.88;;;12.95;;
78484;SDS011;67773;50.806;8.776;2023-12-07T06:24:49;35.20;;;14.03;;
78484;SDS011;67773;50.806;8.776;2023-12-07T06:27:15;36.67;;;13.73;;
78484;SDS011;67773;50.806;8.776;2023-12-07T06:29:40;31.70;;;13.05;;
78484;SDS011;67773;50.806;8.776;2023-12-07T06:32:05;42.67;;;13.13;;
78484;SDS011;67773;50.806;8.776;2023-12-07T06:34:31;32.65;;;13.00;;
78484;SDS011;67773;50.806;8.776;2023-12-07T06:36:56;31.50;;;13.18;;
78484;SDS011;67773;50.806;8.776;2023-12-07T06:39:22;37.03;;;13.40;;
78484;SDS011;67773;50.806;8.776;2023-12-07T06:41:47;35.63;;;13.93;;
78484;SDS011;67773;50.806;8.776;2023-12-07T06:44:12;40.97;;;13.53;;
78484;SDS011;67773;50.806;8.776;2023-12-07T06:46:37;35.73;;;14.73;;
78484;SDS011;67773;50.806;8.776;2023-12-07T06:49:04;32.00;;;13.20;;
78484;SDS011;67773;50.806;8.776;2023-12-07T06:51:29;34.00;;;14.23;;
78484;SDS011;67773;50.806;8.776;2023-12-07T06:53:55;32.87;;;12.20;;
78484;SDS011;67773;50.806;8.776;2023-12-07T06:56:20;40.13;;;13.97;;
78484;SDS011;67773;50.806;8.776;2023-12-07T06:58:45;47.37;;;13.97;;
78484;SDS011;67773;50.806;8.776;2023-12-07T07:01:10;41.27;;;14.67;;
78484;SDS011;67773;50.806;8.776;2023-12-07T07:03:37;36.30;;;13.43;;
78484;SDS011;67773;50.806;8.776;2023-12-07T07:06:03;34.17;;;13.00;;
78484;SDS011;67773;50.806;8.776;2023-12-07T07:08:28;29.02;;;11.40;;
78484;SDS011;67773;50.806;8.776;2023-12-07T07:10:55;43.07;;;12.77;;
78484;SDS011;67773;50.806;8.776;2023-12-07T07:13:20;32.30;;;11.57;;
78484;SDS011;67773;50.806;8.776;2023-12-07T07:15:46;32.50;;;11.93;;
78484;SDS011;67773;50.806;8.776;2023-12-07T07:18:13;32.95;;;13.25;;
78484;SDS011;67773;50.806;8.776;2023-12-07T07:20:38;36.00;;;12.70;;
78484;SDS011;67773;50.806;8.776;2023-12-07T07:23:03;37.88;;;13.43;;
78484;SDS011;67773;50.806;8.776;2023-12-07T07:25:29;40.30;;;14.67;;
78484;SDS011;67773;50.806;8.776;2023-12-07T07:27:54;29.93;;;12.57;;
78484;SDS011;67773;50.806;8.776;2023-12-07T07:30:20;32.60;;;11.90;;
78484;SDS011;67773;50.806;8.776;2023-12-07T07:32:45;33.97;;;13.48;;
78484;SDS011;67773;50.806;8.776;2023-12-07T07:35:11;37.97;;;13.77;;
78484;SDS011;67773;50.806;8.776;2023-12-07T07:37:37;40.75;;;13.05;;
78484;SDS011;67773;50.806;8.776;2023-12-07T07:40:06;34.58;;;13.88;;
78484;SDS011;67773;50.806;8.776;2023-12-07T07:42:32;30.10;;;12.25;;
78484;SDS011;67773;50.806;8.776;2023-12-07T07:44:58;26.58;;;11.00;;
78484;SDS011;67773;50.806;8.776;2023-12-07T07:47:23;21.65;;;9.90;;
78484;SDS011;67773;50.806;8.776;2023-12-07T07:49:49;29.97;;;10.40;;
78484;SDS011;67773;50.806;8.776;2023-12-07T07:52:14;28.50;;;10.63;;
78484;SDS011;67773;50.806;8.776;2023-12-07T07:54:39;23.58;;;10.55;;
78484;SDS011;67773;50.806;8.776;2023-12-07T07:57:05;26.37;;;11.30;;
78484;SDS011;67773;50.806;8.776;2023-12-07T07:59:30;27.33;;;11.00;;
78484;SDS011;67773;50.806;8.776;2023-12-07T08:01:56;26.13;;;9.15;;
78484;SDS011;67773;50.806;8.776;2023-12-07T08:04:22;33.55;;;10.38;;
78484;SDS011;67773;50.806;8.776;2023-12-07T08:06:47;28.70;;;10.90;;
78484;SDS011;67773;50.806;8.776;2023-12-07T08:09:13;33.40;;;10.53;;
78484;SDS011;67773;50.806;8.776;2023-12-07T08:11:38;33.17;;;11.93;;
78484;SDS011;67773;50.806;8.776;2023-12-07T08:14:03;32.05;;;11.70;;
78484;SDS011;67773;50.806;8.776;2023-12-07T08:16:29;31.47;;;11.90;;
78484;SDS011;67773;50.806;8.776;2023-12-07T08:18:54;29.27;;;12.05;;
78484;SDS011;67773;50.806;8.776;2023-12-07T08:21:20;26.13;;;10.97;;
78484;SDS011;67773;50.806;8.776;2023-12-07T08:23:46;36.85;;;12.27;;
78484;SDS011;67773;50.806;8.776;2023-12-07T08:26:11;31.43;;;11.23;;
78484;SDS011;67773;50.806;8.776;2023-12-07T08:28:39;34.25;;;12.02;;
78484;SDS011;67773;50.806;8.776;2023-12-07T08:31:04;32.35;;;11.90;;
78484;SDS011;67773;50.806;8.776;2023-12-07T08:33:29;45.95;;;12.52;;
78484;SDS011;67773;50.806;8.776;2023-12-07T08:35:55;38.77;;;11.77;;
78484;SDS011;67773;50.806;8.776;2023-12-07T08:38:21;65.05;;;13.60;;
78484;SDS011;67773;50.806;8.776;2023-12-07T08:40:47;33.65;;;12.73;;
78484;SDS011;67773;50.806;8.776;2023-12-07T08:43:13;34.30;;;12.15;;
78484;SDS011;67773;50.806;8.776;2023-12-07T08:45:39;27.40;;;10.60;;
78484;SDS011;67773;50.806;8.776;2023-12-07T08:48:04;28.88;;;10.98;;
78484;SDS011;67773;50.806;8.776;2023-12-07T08:50:30;37.15;;;10.80;;
78484;SDS011;67773;50.806;8.776;2023-12-07T08:52:55;33.13;;;10.50;;
78484;SDS011;67773;50.806;8.776;2023-12-07T08:55:20;24.80;;;10.47;;
78484;SDS011;67773;50.806;8.776;2023-12-07T08:57:46;28.17;;;10.57;;
78484;SDS011;67773;50.806;8.776;2023-12-07T09:00:11;25.88;;;10.20;;
78484;SDS011;67773;50.806;8.776;2023-12-07T09:02:39;25.42;;;10.15;;
78484;SDS011;67773;50.806;8.776;2023-12-07T09:05:05;26.63;;;10.10;;
78484;SDS011;67773;50.806;8.776;2023-12-07T09:07:30;30.95;;;10.65;;
78484;SDS011;67773;50.806;8.776;2023-12-07T09:09:56;31.97;;;11.87;;
78484;SDS011;67773;50.806;8.776;2023-12-07T09:12:21;25.73;;;11.00;;
78484;SDS011;67773;50.806;8.776;2023-12-07T09:14:46;25.40;;;10.73;;
78484;SDS011;67773;50.806;8.776;2023-12-07T09:17:12;24.70;;;9.23;;
78484;SDS011;67773;50.806;8.776;2023-12-07T09:19:37;38.42;;;11.57;;
78484;SDS011;67773;50.806;8.776;2023-12-07T09:22:02;26.77;;;11.53;;
78484;SDS011;67773;50.806;8.776;2023-12-07T09:24:28;28.80;;;10.77;;
78484;SDS011;67773;50.806;8.776;2023-12-07T09:26:53;29.03;;;9.80;;
78484;SDS011;67773;50.806;8.776;2023-12-07T09:29:18;30.70;;;11.60;;
78484;SDS011;67773;50.806;8.776;2023-12-07T09:31:44;28.17;;;10.13;;
78484;SDS011;67773;50.806;8.776;2023-12-07T09:34:09;26.13;;;10.97;;
78484;SDS011;67773;50.806;8.776;2023-12-07T09:36:34;35.37;;;10.80;;
78484;SDS011;67773;50.806;8.776;2023-12-07T09:39:00;29.03;;;10.67;;
78484;SDS011;67773;50.806;8.776;2023-12-07T09:41:26;29.63;;;9.43;;
78484;SDS011;67773;50.806;8.776;2023-12-07T09:43:53;24.67;;;10.38;;
78484;SDS011;67773;50.806;8.776;2023-12-07T09:46:19;27.73;;;10.07;;
78484;SDS011;67773;50.806;8.776;2023-12-07T09:48:44;23.80;;;9.73;;
78484;SDS011;67773;50.806;8.776;2023-12-07T09:51:14;27.70;;;9.95;;
78484;SDS011;67773;50.806;8.776;2023-12-07T09:53:40;30.67;;;11.10;;
78484;SDS011;67773;50.806;8.776;2023-12-07T09:56:08;43.33;;;17.25;;
78484;SDS011;67773;50.806;8.776;2023-12-07T09:58:34;32.60;;;12.73;;
78484;SDS011;67773;50.806;8.776;2023-12-07T10:00:59;37.50;;;12.70;;
78484;SDS011;67773;50.806;8.776;2023-12-07T10:03:25;27.40;;;11.00;;
78484;SDS011;67773;50.806;8.776;2023-12-07T10:05:54;27.33;;;10.98;;
78484;SDS011;67773;50.806;8.776;2023-12-07T10:08:31;32.03;;;11.32;;
78484;SDS011;67773;50.806;8.776;2023-12-07T10:11:10;27.05;;;10.43;;
78484;SDS011;67773;50.806;8.776;2023-12-07T10:13:38;30.15;;;11.65;;
78484;SDS011;67773;50.806;8.776;2023-12-07T10:16:13;25.42;;;9.57;;
78484;SDS011;67773;50.806;8.776;2023-12-07T10:18:40;33.88;;;12.98;;
78484;SDS011;67773;50.806;8.776;2023-12-07T10:21:09;31.83;;;13.68;;
78484;SDS011;67773;50.806;8.776;2023-12-07T10:23:35;29.63;;;11.57;;
78484;SDS011;67773;50.806;8.776;2023-12-07T10:26:01;31.80;;;11.90;;
78484;SDS011;67773;50.806;8.776;2023-12-07T10:28:27;30.00;;;11.63;;
78484;SDS011;67773;50.806;8.776;2023-12-07T10:30:53;30.27;;;11.18;;
78484;SDS011;67773;50.806;8.776;2023-12-07T10:33:19;29.27;;;11.63;;
78484;SDS011;67773;50.806;8.776;2023-12-07T10:35:44;30.63;;;11.50;;
78484;SDS011;67773;50.806;8.776;2023-12-07T10:38:13;27.08;;;10.77;;
78484;SDS011;67773;50.806;8.776;2023-12-07T10:40:38;28.23;;;10.65;;
78484;SDS011;67773;50.806;8.776;2023-12-07T10:43:05;28.33;;;12.73;;
78484;SDS011;67773;50.806;8.776;2023-12-07T10:45:32;33.20;;;11.73;;
78484;SDS011;67773;50.806;8.776;2023-12-07T10:48:02;27.42;;;10.48;;
78484;SDS011;67773;50.806;8.776;2023-12-07T10:50:30;30.83;;;12.45;;
78484;SDS011;67773;50.806;8.776;2023-12-07T10:52:59;30.63;;;11.93;;
78484;SDS011;67773;50.806;8.776;2023-12-07T10:55:34;31.45;;;11.13;;
78484;SDS011;67773;50.806;8.776;2023-12-07T10:58:08;28.95;;;11.25;;
78484;SDS011;67773;50.806;8.776;2023-12-07T11:00:35;25.70;;;11.27;;
78484;SDS011;67773;50.806;8.776;2023-12-07T11:03:01;26.88;;;10.75;;
78484;SDS011;67773;50.806;8.776;2023-12-07T11:05:28;26.00;;;10.65;;
78484;SDS011;67773;50.806;8.776;2023-12-07T11:07:57;24.90;;;10.15;;
78484;SDS011;67773;50.806;8.776;2023-12-07T11:10:34;23.13;;;10.68;;
78484;SDS011;67773;50.806;8.776;2023-12-07T11:13:11;26.45;;;11.23;;
78484;SDS011;67773;50.806;8.776;2023-12-07T11:15:42;30.38;;;11.00;;
78484;SDS011;67773;50.806;8.776;2023-12-07T11:18:08;27.73;;;11.73;;
78484;SDS011;67773;50.806;8.776;2023-12-07T11:20:40;28.20;;;11.80;;
78484;SDS011;67773;50.806;8.776;2023-12-07T11:23:11;26.77;;;11.77;;
78484;SDS011;67773;50.806;8.776;2023-12-07T11:25:36;25.33;;;11.20;;
78484;SDS011;67773;50.806;8.776;2023-12-07T11:28:03;25.52;;;10.80;;
78484;SDS011;67773;50.806;8.776;2023-12-07T11:30:32;26.60;;;11.88;;
78484;SDS011;67773;50.806;8.776;2023-12-07T11:33:00;25.67;;;9.90;;
78484;SDS011;67773;50.806;8.776;2023-12-07T11:35:25;27.70;;;10.85;;
78484;SDS011;67773;50.806;8.776;2023-12-07T11:40:29;29.67;;;11.15;;
78484;SDS011;67773;50.806;8.776;2023-12-07T11:42:56;24.88;;;10.07;;
78484;SDS011;67773;50.806;8.776;2023-12-07T11:45:48;25.55;;;10.48;;
78484;SDS011;67773;50.806;8.776;2023-12-07T11:48:14;25.83;;;11.30;;
78484;SDS011;67773;50.806;8.776;2023-12-07T11:50:59;27.55;;;11.75;;
78484;SDS011;67773;50.806;8.776;2023-12-07T11:53:29;30.02;;;12.52;;
78484;SDS011;67773;50.806;8.776;2023-12-07T11:55:56;29.13;;;13.27;;
78484;SDS011;67773;50.806;8.776;2023-12-07T11:58:24;28.52;;;12.32;;
78484;SDS011;67773;50.806;8.776;2023-12-07T12:00:50;30.05;;;13.50;;
78484;SDS011;67773;50.806;8.776;2023-12-07T12:03:17;28.77;;;12.27;;
78484;SDS011;67773;50.806;8.776;2023-12-07T12:05:42;28.90;;;11.10;;
78484;SDS011;67773;50.806;8.776;2023-12-07T12:08:09;30.00;;;13.98;;
78484;SDS011;67773;50.806;8.776;2023-12-07T12:10:34;30.65;;;12.50;;
78484;SDS011;67773;50.806;8.776;2023-12-07T12:13:03;33.10;;;12.93;;
78484;SDS011;67773;50.806;8.776;2023-12-07T12:15:29;31.98;;;14.13;;
78484;SDS011;67773;50.806;8.776;2023-12-07T12:17:55;30.63;;;12.18;;
78484;SDS011;67773;50.806;8.776;2023-12-07T12:20:21;26.13;;;11.57;;
78484;SDS011;67773;50.806;8.776;2023-12-07T12:22:47;29.02;;;12.30;;
78484;SDS011;67773;50.806;8.776;2023-12-07T12:25:12;28.42;;;10.88;;
78484;SDS011;67773;50.806;8.776;2023-12-07T12:27:38;34.15;;;11.95;;
78484;SDS011;67773;50.806;8.776;2023-12-07T12:30:05;27.63;;;12.25;;
78484;SDS011;67773;50.806;8.776;2023-12-07T12:32:43;29.25;;;12.77;;
78484;SDS011;67773;50.806;8.776;2023-12-07T12:35:09;34.10;;;12.10;;
78484;SDS011;67773;50.806;8.776;2023-12-07T12:37:35;35.65;;;13.38;;
78484;SDS011;67773;50.806;8.776;2023-12-07T12:40:07;32.58;;;13.38;;
78484;SDS011;67773;50.806;8.776;2023-12-07T12:42:33;27.75;;;11.95;;
78484;SDS011;67773;50.806;8.776;2023-12-07T12:44:59;31.75;;;12.25;;
78484;SDS011;67773;50.806;8.776;2023-12-07T12:47:25;29.88;;;12.23;;
78484;SDS011;67773;50.806;8.776;2023-12-07T12:49:50;27.95;;;11.88;;
78484;SDS011;67773;50.806;8.776;2023-12-07T12:52:16;25.95;;;11.98;;
78484;SDS011;67773;50.806;8.776;2023-12-07T12:54:45;27.45;;;11.25;;
78484;SDS011;67773;50.806;8.776;2023-12-07T12:57:11;24.67;;;11.95;;
78484;SDS011;67773;50.806;8.776;2023-12-07T12:59:37;26.52;;;10.82;;
78484;SDS011;67773;50.806;8.776;2023-12-07T13:02:02;27.23;;;13.13;;
78484;SDS011;67773;50.806;8.776;2023-12-07T13:04:30;25.85;;;12.13;;
78484;SDS011;67773;50.806;8.776;2023-12-07T13:06:56;25.45;;;11.00;;
78484;SDS011;67773;50.806;8.776;2023-12-07T13:09:21;24.05;;;9.95;;
78484;SDS011;67773;50.806;8.776;2023-12-07T13:11:47;25.08;;;10.88;;
78484;SDS011;67773;50.806;8.776;2023-12-07T13:14:13;25.88;;;11.10;;
78484;SDS011;67773;50.806;8.776;2023-12-07T13:16:39;25.93;;;11.37;;
78484;SDS011;67773;50.806;8.776;2023-12-07T13:19:04;22.37;;;10.03;;
78484;SDS011;67773;50.806;8.776;2023-12-07T13:21:29;27.73;;;11.53;;
78484;SDS011;67773;50.806;8.776;2023-12-07T13:23:54;25.73;;;11.53;;
78484;SDS011;67773;50.806;8.776;2023-12-07T13:26:20;21.67;;;10.17;;
78484;SDS011;67773;50.806;8.776;2023-12-07T13:28:48;25.40;;;10.77;;
78484;SDS011;67773;50.806;8.776;2023-12-07T13:31:13;27.27;;;11.53;;
78484;SDS011;67773;50.806;8.776;2023-12-07T13:33:38;28.90;;;10.93;;
78484;SDS011;67773;50.806;8.776;2023-12-07T13:36:05;27.00;;;11.30;;
78484;SDS011;67773;50.806;8.776;2023-12-07T13:38:31;27.92;;;12.20;;
78484;SDS011;67773;50.806;8.776;2023-12-07T13:40:56;27.67;;;11.60;;
78484;SDS011;67773;50.806;8.776;2023-12-07T13:43:22;22.95;;;10.02;;
78484;SDS011;67773;50.806;8.776;2023-12-07T13:45:49;22.67;;;10.20;;
78484;SDS011;67773;50.806;8.776;2023-12-07T13:48:14;20.40;;;9.98;;
78484;SDS011;67773;50.806;8.776;2023-12-07T13:50:40;21.10;;;9.07;;
78484;SDS011;67773;50.806;8.776;2023-12-07T13:53:07;21.63;;;9.77;;
78484;SDS011;67773;50.806;8.776;2023-12-07T13:55:35;22.02;;;10.30;;
78484;SDS011;67773;50.806;8.776;2023-12-07T13:58:02;21.08;;;9.38;;
78484;SDS011;67773;50.806;8.776;2023-12-07T14:00:27;22.17;;;9.65;;
78484;SDS011;67773;50.806;8.776;2023-12-07T14:02:53;21.38;;;9.73;;
78484;SDS011;67773;50.806;8.776;2023-12-07T14:05:18;21.52;;;10.32;;
78484;SDS011;67773;50.806;8.776;2023-12-07T14:07:44;16.52;;;9.13;;
78484;SDS011;67773;50.806;8.776;2023-12-07T14:10:10;22.00;;;10.40;;
78484;SDS011;67773;50.806;8.776;2023-12-07T14:12:36;22.33;;;9.93;;
78484;SDS011;67773;50.806;8.776;2023-12-07T14:15:02;27.90;;;12.20;;
78484;SDS011;67773;50.806;8.776;2023-12-07T14:17:28;23.58;;;10.85;;
78484;SDS011;67773;50.806;8.776;2023-12-07T14:19:57;24.05;;;11.05;;
78484;SDS011;67773;50.806;8.776;2023-12-07T14:22:22;25.58;;;11.45;;